Time;durP1;ratioP1;P1;durP2;ratioP2;P2;SDS_P1;SDS_P2;PMS_P1;PMS_P2;Temp;Humidity;BMP_temperature;BMP_pressure;BME280_temperature;BME280_humidity;BME280_pressure;Samples;Min_cycle;Max_cycle;Signal;HPM_P1;HPM_P2
2021/12/01 00:01:43;;;;;;;11.30;5.57;;;;;;;3.34;nan;99821.56;5024166;28;20046;-75
2021/12/01 00:04:29;;;;;;;10.02;4.97;;;;;;;3.34;nan;99818.94;5009629;28;20514;-75
2021/12/01 00:07:15;;;;;;;11.25;4.97;;;;;;;3.25;nan;99810.50;4995884;28;20106;-75
2021/12/01 00:10:02;;;;;;;8.73;4.63;;;;;;;3.34;nan;99831.97;4996426;28;20042;-75
2021/12/01 00:12:50;;;;;;;12.88;5.38;;;;;;;3.30;nan;99844.53;5010009;28;20099;-75
2021/12/01 00:15:36;;;;;;;9.20;4.72;;;;;;;3.31;nan;99845.38;4995499;28;20045;-74
2021/12/01 00:18:22;;;;;;;10.10;5.25;;;;;;;3.27;nan;99852.72;4997303;28;20569;-73
2021/12/01 00:21:08;;;;;;;8.85;4.72;;;;;;;3.24;nan;99852.31;4990037;28;20041;-75
2021/12/01 00:23:54;;;;;;;11.05;5.13;;;;;;;3.26;nan;99860.75;5009890;28;20549;-75
2021/12/01 00:26:39;;;;;;;11.43;4.97;;;;;;;3.11;nan;99840.84;5008551;28;20085;-74
2021/12/01 00:29:25;;;;;;;10.85;5.35;;;;;;;3.24;nan;99865.34;4992108;28;20038;-74
2021/12/01 00:32:11;;;;;;;7.70;4.63;;;;;;;3.09;nan;99849.81;5008814;28;20042;-75
2021/12/01 00:34:59;;;;;;;8.18;4.97;;;;;;;3.17;nan;99862.69;5006842;28;20029;-75
2021/12/01 00:37:44;;;;;;;9.75;4.88;;;;;;;3.26;nan;99868.56;5002058;28;20545;-74
2021/12/01 00:40:31;;;;;;;9.30;4.80;;;;;;;3.20;nan;99859.69;5010954;28;20041;-74
2021/12/01 00:43:18;;;;;;;8.57;4.88;;;;;;;3.24;nan;99870.53;5030996;28;20041;-75
2021/12/01 00:49:16;;;;;;;9.27;4.80;;;;;;;3.19;nan;99881.50;4985677;28;20037;-75
2021/12/01 00:52:03;;;;;;;8.32;4.65;;;;;;;3.12;nan;99867.66;4996329;28;20045;-74
2021/12/01 00:54:48;;;;;;;9.23;5.00;;;;;;;3.05;nan;99861.59;5010511;28;20033;-75
2021/12/01 00:57:35;;;;;;;9.15;5.32;;;;;;;3.09;nan;99879.25;4994960;28;20141;-75
2021/12/01 01:00:23;;;;;;;9.95;5.30;;;;;;;3.11;nan;99894.66;4991070;28;20031;-75
2021/12/01 01:03:09;;;;;;;13.40;5.30;;;;;;;3.04;nan;99884.22;4991289;28;20566;-74
2021/12/01 01:05:55;;;;;;;8.50;5.20;;;;;;;2.92;nan;99859.69;4995869;28;20036;-74
2021/12/01 01:08:42;;;;;;;9.85;5.30;;;;;;;2.91;nan;99866.69;5009584;28;20046;-74
2021/12/01 01:17:45;;;;;;;9.13;4.53;;;;;;;2.97;nan;99876.34;5009806;28;20029;-74
2021/12/01 01:20:30;;;;;;;10.38;4.70;;;;;;;2.90;nan;99872.09;5001663;28;20526;-74
2021/12/01 01:23:16;;;;;;;9.70;5.20;;;;;;;2.98;nan;99877.94;5010585;28;20053;-74
2021/12/01 01:26:05;;;;;;;8.52;4.75;;;;;;;2.97;nan;99875.56;4989429;28;20042;-74
2021/12/01 01:28:51;;;;;;;11.18;5.45;;;;;;;2.97;nan;99876.34;4998447;28;20056;-74
2021/12/01 01:31:37;;;;;;;7.63;4.68;;;;;;;2.92;nan;99870.06;4995609;28;20491;-74
2021/12/01 01:34:25;;;;;;;8.50;5.07;;;;;;;3.00;nan;99874.38;4975362;28;20038;-75
2021/12/01 01:37:11;;;;;;;11.32;4.50;;;;;;;2.93;nan;99854.31;5009604;28;20052;-74
2021/12/01 01:39:57;;;;;;;6.93;4.10;;;;;;;2.67;nan;99818.50;5014809;28;20076;-74
2021/12/01 01:42:43;;;;;;;7.75;4.28;;;;;;;2.94;nan;99858.50;5011590;28;20418;-75
2021/12/01 01:45:29;;;;;;;14.35;4.80;;;;;;;2.88;nan;99861.06;4997716;28;20172;-75
2021/12/01 01:48:15;;;;;;;8.63;4.50;;;;;;;2.89;nan;99842.66;4987994;28;20042;-74
2021/12/01 01:51:04;;;;;;;9.98;4.70;;;;;;;2.92;nan;99849.28;5003773;28;20033;-74
2021/12/01 01:53:53;;;;;;;9.63;5.03;;;;;;;2.94;nan;99855.09;5013206;28;20399;-74
2021/12/01 01:56:40;;;;;;;;;;;;;;;2.95;nan;99851.53;5013669;28;20038;-75
2021/12/01 01:59:26;;;;;;;8.20;4.15;;;;;;;2.92;nan;99850.09;5015225;28;19918;-75
2021/12/01 02:02:11;;;;;;;9.68;4.55;;;;;;;2.90;nan;99846.88;5013133;28;20044;-74
2021/12/01 02:04:57;;;;;;;6.72;3.72;;;;;;;2.96;nan;99861.72;5013170;28;20044;-74
2021/12/01 02:07:44;;;;;;;8.77;4.15;;;;;;;2.96;nan;99860.91;4998594;28;20037;-74
2021/12/01 02:10:30;;;;;;;8.00;4.45;;;;;;;2.85;nan;99841.44;5012087;28;20125;-74
2021/12/01 02:13:18;;;;;;;6.90;4.00;;;;;;;2.86;nan;99837.03;4998289;28;20103;-74
2021/12/01 02:16:04;;;;;;;6.88;4.28;;;;;;;2.94;nan;99857.69;4998836;28;20034;-75
2021/12/01 02:18:50;;;;;;;6.30;3.97;;;;;;;2.91;nan;99851.06;5010776;28;20048;-75
2021/12/01 02:21:36;;;;;;;8.55;4.20;;;;;;;2.99;nan;99860.53;4997851;28;20088;-75
2021/12/01 02:24:23;;;;;;;7.75;3.92;;;;;;;3.02;nan;99865.38;5013219;28;20103;-75
2021/12/01 02:27:12;;;;;;;6.82;4.20;;;;;;;3.03;nan;99873.97;5012106;28;20065;-74
2021/12/01 02:29:58;;;;;;;9.68;3.90;;;;;;;2.83;nan;99830.44;5011951;28;20062;-74
2021/12/01 02:32:43;;;;;;;7.68;3.78;;;;;;;3.04;nan;99854.78;5012303;28;20108;-74
2021/12/01 02:35:29;;;;;;;11.98;4.15;;;;;;;3.03;nan;99856.56;5006828;28;20491;-74
2021/12/01 02:38:17;;;;;;;7.47;3.58;;;;;;;3.14;nan;99871.66;5017624;28;20490;-74
2021/12/01 02:41:02;;;;;;;6.43;3.65;;;;;;;3.18;nan;99872.09;5003129;28;20052;-74
2021/12/01 02:43:48;;;;;;;6.35;3.47;;;;;;;3.20;nan;99873.50;4997705;28;20419;-75
2021/12/01 02:46:35;;;;;;;6.60;3.70;;;;;;;3.27;nan;99880.56;5011787;28;20099;-75
2021/12/01 02:49:22;;;;;;;6.28;3.63;;;;;;;3.31;nan;99892.22;4997738;28;20092;-75
2021/12/01 02:52:08;;;;;;;5.93;3.30;;;;;;;3.35;nan;99877.81;4997306;28;20111;-74
2021/12/01 02:54:55;;;;;;;6.10;3.42;;;;;;;3.37;nan;99871.41;4997560;28;20038;-75
2021/12/01 02:57:52;;;;;;;7.35;3.45;;;;;;;3.47;nan;99884.13;5011355;28;20050;-74
2021/12/01 03:00:38;;;;;;;7.25;2.97;;;;;;;3.48;nan;99871.91;5007909;28;20113;-73
2021/12/01 03:03:24;;;;;;;6.93;3.47;;;;;;;3.55;nan;99873.53;5012205;28;20100;-74
2021/12/01 03:06:11;;;;;;;9.07;3.47;;;;;;;3.60;nan;99885.97;4998174;28;20563;-74
2021/12/01 03:08:57;;;;;;;6.15;3.38;;;;;;;3.54;nan;99884.91;5011892;28;20042;-74
2021/12/01 03:11:43;;;;;;;7.82;3.75;;;;;;;3.58;nan;99878.34;5011745;28;20037;-74
2021/12/01 03:14:29;;;;;;;8.88;3.63;;;;;;;3.57;nan;99870.75;5010871;28;20056;-74
2021/12/01 03:17:14;;;;;;;6.50;3.70;;;;;;;3.66;nan;99879.97;4990542;28;20045;-74
2021/12/01 03:20:01;;;;;;;6.82;3.83;;;;;;;3.58;nan;99849.72;4998604;28;20041;-74
2021/12/01 03:22:48;;;;;;;7.95;4.20;;;;;;;3.53;nan;99848.69;4997282;28;20038;-74
2021/12/01 03:25:33;;;;;;;6.97;3.72;;;;;;;3.79;nan;99895.69;5010215;28;20038;-75
2021/12/01 03:28:21;;;;;;;7.97;3.50;;;;;;;3.87;nan;99899.94;4997496;28;20526;-75
2021/12/01 03:31:07;;;;;;;6.78;3.80;;;;;;;3.83;nan;99889.13;4983570;28;20117;-74
2021/12/01 03:33:53;;;;;;;8.00;3.80;;;;;;;3.92;nan;99892.34;5011042;28;20034;-75
2021/12/01 03:36:39;;;;;;;6.72;3.90;;;;;;;3.94;nan;99890.34;5005908;28;20096;-74
2021/12/01 03:39:25;;;;;;;9.02;3.92;;;;;;;3.96;nan;99890.97;5008997;28;20038;-74
2021/12/01 03:42:11;;;;;;;8.18;4.15;;;;;;;3.97;nan;99882.13;5011416;28;20042;-74
2021/12/01 03:44:57;;;;;;;8.98;4.25;;;;;;;4.02;nan;99889.38;5011857;28;20072;-75
2021/12/01 03:47:43;;;;;;;8.23;4.25;;;;;;;4.00;nan;99871.34;5010615;28;20133;-75
2021/12/01 03:50:28;;;;;;;8.57;3.58;;;;;;;4.01;nan;99872.16;4997386;28;20030;-74
2021/12/01 03:53:16;;;;;;;8.15;3.60;;;;;;;4.16;nan;99895.44;4982133;28;20040;-75
2021/12/01 03:56:02;;;;;;;6.25;3.22;;;;;;;4.22;nan;99899.88;4996515;28;20038;-74
2021/12/01 03:58:47;;;;;;;5.57;3.20;;;;;;;4.15;nan;99886.03;5010184;28;20748;-75
2021/12/01 04:01:34;;;;;;;7.90;3.17;;;;;;;4.26;nan;99904.50;5009700;28;20060;-74
2021/12/01 04:04:19;;;;;;;5.07;2.92;;;;;;;4.21;nan;99883.47;4996327;28;20054;-74
2021/12/01 04:07:06;;;;;;;6.63;2.97;;;;;;;4.31;nan;99901.31;4997076;28;20048;-74
2021/12/01 04:09:51;;;;;;;4.88;3.00;;;;;;;4.29;nan;99892.09;5010606;28;20057;-74
2021/12/01 04:12:37;;;;;;;5.55;3.08;;;;;;;4.34;nan;99903.53;5009598;28;20117;-74
2021/12/01 04:15:24;;;;;;;5.70;2.70;;;;;;;4.42;nan;99911.16;4990361;28;20049;-74
2021/12/01 04:18:10;;;;;;;4.03;2.45;;;;;;;4.45;nan;99909.97;5010034;28;20407;-75
2021/12/01 04:20:55;;;;;;;4.38;2.70;;;;;;;4.39;nan;99902.94;5009656;28;20115;-74
2021/12/01 04:23:41;;;;;;;5.95;2.80;;;;;;;4.47;nan;99916.59;5010802;28;20037;-74
2021/12/01 04:26:31;;;;;;;5.20;2.88;;;;;;;4.53;nan;99916.81;5010955;28;20076;-75
2021/12/01 04:29:17;;;;;;;6.35;2.90;;;;;;;4.53;nan;99922.03;5010855;28;20049;-74
2021/12/01 04:32:03;;;;;;;3.72;2.33;;;;;;;4.51;nan;99919.63;4995183;28;20042;-74
2021/12/01 04:34:49;;;;;;;5.70;2.40;;;;;;;4.58;nan;99933.47;5017521;28;20029;-74
2021/12/01 04:37:35;;;;;;;8.95;2.80;;;;;;;4.59;nan;99929.06;5002238;28;20140;-75
2021/12/01 04:40:21;;;;;;;6.28;2.65;;;;;;;4.58;nan;99924.84;5013595;28;20042;-74
2021/12/01 04:43:07;;;;;;;5.43;2.35;;;;;;;4.53;nan;99922.84;5009788;28;20049;-74
2021/12/01 04:45:58;;;;;;;6.80;3.10;;;;;;;4.63;nan;99935.50;5010134;28;20033;-75
2021/12/01 04:48:44;;;;;;;4.90;2.70;;;;;;;4.64;nan;99937.09;4996770;28;20048;-74
2021/12/01 04:51:30;;;;;;;5.03;2.88;;;;;;;4.55;nan;99926.06;4995295;28;20061;-74
2021/12/01 04:54:16;;;;;;;7.10;3.92;;;;;;;4.61;nan;99947.94;5020896;28;20034;-75
2021/12/01 04:57:04;;;;;;;9.00;2.90;;;;;;;4.61;nan;99945.31;4993785;28;20534;-75
2021/12/01 04:59:50;;;;;;;8.30;3.25;;;;;;;4.51;nan;99937.06;5009108;28;20034;-74
2021/12/01 05:02:36;;;;;;;6.72;2.72;;;;;;;4.50;nan;99943.28;5009470;28;20034;-74
2021/12/01 05:05:22;;;;;;;4.72;2.70;;;;;;;4.51;nan;99943.09;5009876;28;20041;-75
2021/12/01 05:08:07;;;;;;;5.13;2.97;;;;;;;4.47;nan;99936.66;5002080;28;20511;-74
2021/12/01 05:10:53;;;;;;;4.68;2.70;;;;;;;4.46;nan;99928.03;5009504;28;20037;-75
2021/12/01 05:13:39;;;;;;;8.90;2.80;;;;;;;4.49;nan;99929.44;5010094;28;20341;-75
2021/12/01 05:16:24;;;;;;;5.05;2.78;;;;;;;4.42;nan;99931.22;5015113;28;20041;-75
2021/12/01 05:19:11;;;;;;;4.78;2.83;;;;;;;4.44;nan;99926.63;5005265;28;20038;-74
2021/12/01 05:21:57;;;;;;;5.82;2.75;;;;;;;4.44;nan;99935.25;5009156;28;20049;-75
2021/12/01 05:24:43;;;;;;;7.32;3.13;;;;;;;4.22;nan;99916.31;4998843;28;20042;-74
2021/12/01 05:27:28;;;;;;;6.85;3.30;;;;;;;4.41;nan;99956.50;5000048;28;20037;-75
2021/12/01 05:30:14;;;;;;;6.13;3.40;;;;;;;4.33;nan;99961.06;4998395;28;20050;-74
2021/12/01 05:33:09;;;;;;;7.43;3.22;;;;;;;4.44;nan;99983.97;5013960;28;20684;-74
2021/12/01 05:35:55;;;;;;;6.90;3.50;;;;;;;4.48;nan;99990.41;5020655;28;20034;-76
2021/12/01 05:38:42;;;;;;;9.02;3.88;;;;;;;4.40;nan;99987.97;5013197;28;20446;-75
2021/12/01 05:41:28;;;;;;;7.22;3.42;;;;;;;4.37;nan;99978.72;5001041;28;20561;-74
2021/12/01 05:44:13;;;;;;;10.60;3.97;;;;;;;4.46;nan;100000.22;5012580;28;20045;-74
2021/12/01 05:46:59;;;;;;;9.70;4.00;;;;;;;4.50;nan;100016.28;5011973;28;20045;-75
2021/12/01 05:49:45;;;;;;;7.68;3.55;;;;;;;4.45;nan;100015.06;5012761;28;20026;-75
2021/12/01 05:52:31;;;;;;;6.13;3.42;;;;;;;4.43;nan;100006.63;5012698;28;20042;-74
2021/12/01 05:55:16;;;;;;;8.10;3.50;;;;;;;4.44;nan;100002.22;5013456;28;20041;-75
2021/12/01 05:58:03;;;;;;;6.88;4.00;;;;;;;4.50;nan;100013.66;4999827;28;20121;-74
2021/12/01 06:00:49;;;;;;;8.23;4.10;;;;;;;4.38;nan;100003.81;4997254;28;20034;-74
2021/12/01 06:03:34;;;;;;;10.15;4.30;;;;;;;4.48;nan;100029.53;5011731;28;20103;-74
2021/12/01 06:06:20;;;;;;;7.88;4.00;;;;;;;4.41;nan;100019.06;4989807;28;20030;-75
2021/12/01 06:09:06;;;;;;;12.55;5.32;;;;;;;4.46;nan;100027.09;5012119;28;20038;-76
2021/12/01 06:11:52;;;;;;;10.95;5.60;;;;;;;4.43;nan;100021.44;4998078;28;20127;-75
2021/12/01 06:14:43;;;;;;;12.52;5.00;;;;;;;4.43;nan;100016.25;5009910;28;20062;-74
2021/12/01 06:17:28;;;;;;;13.70;6.50;;;;;;;4.56;nan;100044.19;5023442;28;20046;-73
2021/12/01 06:20:15;;;;;;;9.02;4.57;;;;;;;4.60;nan;100050.63;4984022;28;20495;-73
2021/12/01 06:23:00;;;;;;;8.75;4.00;;;;;;;4.59;nan;100051.63;4994035;28;20049;-71
2021/12/01 06:25:46;;;;;;;9.65;4.22;;;;;;;4.63;nan;100051.03;4993245;28;20506;-73
2021/12/01 06:28:32;;;;;;;11.63;5.18;;;;;;;4.68;nan;100056.47;5011643;28;20104;-73
2021/12/01 06:31:18;;;;;;;12.93;5.93;;;;;;;4.71;nan;100054.47;4994737;28;20037;-74
2021/12/01 06:34:04;;;;;;;11.55;5.57;;;;;;;4.69;nan;100049.44;5010667;28;20038;-73
2021/12/01 06:36:50;;;;;;;12.43;5.40;;;;;;;4.71;nan;100047.44;5013355;28;20116;-73
2021/12/01 06:39:35;;;;;;;10.30;5.40;;;;;;;4.67;nan;100038.44;5010855;28;20029;-73
2021/12/01 06:42:21;;;;;;;14.02;5.55;;;;;;;4.75;nan;100058.31;4996445;28;20168;-73
2021/12/01 06:45:09;;;;;;;15.98;6.65;;;;;;;4.80;nan;100054.09;5010369;28;20037;-74
2021/12/01 06:47:55;;;;;;;23.88;9.93;;;;;;;4.81;nan;100060.97;5009614;28;20403;-74
2021/12/01 06:50:41;;;;;;;14.18;6.82;;;;;;;4.86;nan;100053.34;5010634;28;20030;-73
2021/12/01 06:53:27;;;;;;;8.27;4.47;;;;;;;4.95;nan;100071.41;5011153;28;20041;-73
2021/12/01 06:56:12;;;;;;;7.90;4.25;;;;;;;4.94;nan;100052.34;5010205;28;20087;-74
2021/12/01 06:58:58;;;;;;;9.63;4.90;;;;;;;5.04;nan;100072.84;5011973;28;20180;-74
2021/12/01 07:01:44;;;;;;;9.20;4.82;;;;;;;4.99;nan;100080.47;5011541;28;20052;-73
2021/12/01 07:04:30;;;;;;;8.18;3.58;;;;;;;5.01;nan;100068.03;5012229;28;20569;-73
2021/12/01 07:07:16;;;;;;;8.32;4.00;;;;;;;5.07;nan;100078.47;5011617;28;20033;-74
2021/12/01 07:10:07;;;;;;;9.07;3.70;;;;;;;5.03;nan;100079.09;5006954;28;20026;-74
2021/12/01 07:12:53;;;;;;;10.02;3.95;;;;;;;5.05;nan;100083.09;5010700;28;20046;-74
2021/12/01 07:15:39;;;;;;;10.68;4.03;;;;;;;4.99;nan;100077.88;4997086;28;20510;-74
2021/12/01 07:18:25;;;;;;;10.30;3.83;;;;;;;5.02;nan;100077.47;5006947;28;20499;-74
2021/12/01 07:21:11;;;;;;;9.63;4.65;;;;;;;5.07;nan;100083.69;4988342;28;20042;-74
2021/12/01 07:23:57;;;;;;;7.85;4.60;;;;;;;5.11;nan;100081.50;4997363;28;20030;-73
2021/12/01 07:26:43;;;;;;;8.98;4.85;;;;;;;5.09;nan;100071.25;4990145;28;20042;-75
2021/12/01 07:29:30;;;;;;;12.02;5.30;;;;;;;5.11;nan;100066.66;5010768;28;20085;-73
2021/12/01 07:32:16;;;;;;;7.97;4.10;;;;;;;5.07;nan;100048.97;5010614;28;20034;-74
2021/12/01 07:35:02;;;;;;;10.40;5.18;;;;;;;5.20;nan;100066.47;4994776;28;20037;-73
2021/12/01 07:37:49;;;;;;;10.15;4.82;;;;;;;5.02;nan;100039.13;4986900;28;20131;-74
2021/12/01 07:40:35;;;;;;;11.25;5.13;;;;;;;5.23;nan;100066.09;5007642;28;20093;-74
2021/12/01 07:43:21;;;;;;;9.13;4.63;;;;;;;5.33;nan;100074.31;4994072;28;20046;-73
2021/12/01 07:46:07;;;;;;;8.10;4.13;;;;;;;5.19;nan;100049.19;4995398;28;20097;-73
2021/12/01 07:48:52;;;;;;;11.30;5.30;;;;;;;5.46;nan;100087.41;5002701;28;20042;-73
2021/12/01 07:51:38;;;;;;;14.85;4.25;;;;;;;5.47;nan;100080.38;5006501;28;20030;-74
2021/12/01 07:54:24;;;;;;;12.25;4.03;;;;;;;5.39;nan;100060.50;4997153;23;20049;-75
2021/12/01 07:57:10;;;;;;;18.42;8.48;;;;;;;5.45;nan;100064.91;5030466;28;20042;-75
2021/12/01 07:59:56;;;;;;;11.00;5.00;;;;;;;5.58;nan;100086.81;5009112;28;20089;-75
2021/12/01 08:02:42;;;;;;;11.88;5.10;;;;;;;5.54;nan;100084.59;5005257;28;20096;-75
2021/12/01 08:05:28;;;;;;;9.43;5.28;;;;;;;5.23;nan;100045.19;5002511;28;20044;-74
2021/12/01 08:08:13;;;;;;;11.10;5.97;;;;;;;5.53;nan;100074.34;5009400;28;20048;-74
2021/12/01 08:10:59;;;;;;;13.45;5.45;;;;;;;5.54;nan;100081.19;5008993;28;20038;-74
2021/12/01 08:13:45;;;;;;;11.38;5.40;;;;;;;5.70;nan;100098.28;5008221;28;20040;-74
2021/12/01 08:16:30;;;;;;;8.57;4.10;;;;;;;5.69;nan;100104.50;5008451;28;20057;-73
2021/12/01 08:19:16;;;;;;;7.60;3.70;;;;;;;5.70;nan;100091.25;5009785;28;20049;-74
2021/12/01 08:22:03;;;;;;;9.07;4.13;;;;;;;5.79;nan;100109.34;5004811;28;20080;-74
2021/12/01 08:24:49;;;;;;;9.63;4.00;;;;;;;5.73;nan;100108.34;5006757;28;20048;-74
2021/12/01 08:27:35;;;;;;;13.40;4.75;;;;;;;5.76;nan;100123.59;5010835;28;20606;-74
2021/12/01 08:30:21;;;;;;;10.45;4.60;;;;;;;5.77;nan;100122.63;4999625;28;20048;-73
2021/12/01 08:33:07;;;;;;;9.45;4.22;;;;;;;5.82;nan;100141.09;4985219;28;20046;-75
2021/12/01 08:35:53;;;;;;;12.43;4.72;;;;;;;5.83;nan;100131.47;5007162;28;20041;-74
2021/12/01 08:38:40;;;;;;;9.75;4.32;;;;;;;5.74;nan;100117.78;5017144;28;20127;-74
2021/12/01 08:41:26;;;;;;;8.70;4.13;;;;;;;5.80;nan;100129.25;5004414;28;20035;-74
2021/12/01 08:44:11;;;;;;;6.63;3.60;;;;;;;5.83;nan;100134.06;5007174;28;20053;-72
2021/12/01 08:47:00;;;;;;;7.28;4.00;;;;;;;5.84;nan;100133.06;5006139;28;20045;-73
2021/12/01 08:49:47;;;;;;;9.65;4.63;;;;;;;5.79;nan;100125.00;5005162;28;20038;-74
2021/12/01 08:52:32;;;;;;;8.35;4.60;;;;;;;5.87;nan;100133.47;5013250;28;20597;-74
2021/12/01 08:55:21;;;;;;;8.35;5.22;;;;;;;5.87;nan;100128.25;5017203;28;20050;-74
2021/12/01 08:58:12;;;;;;;7.43;4.07;;;;;;;5.87;nan;100124.84;5002996;28;20092;-71
2021/12/01 09:00:58;;;;;;;9.10;4.35;;;;;;;5.92;nan;100119.81;5018502;28;20034;-71
2021/12/01 09:03:44;;;;;;;6.68;4.00;;;;;;;5.98;nan;100121.63;5017594;28;20045;-71
2021/12/01 09:06:30;;;;;;;6.60;3.47;;;;;;;5.97;nan;100113.00;5020816;28;20088;-70
2021/12/01 09:09:19;;;;;;;7.20;4.25;;;;;;;6.01;nan;100105.56;5010766;28;20068;-71
2021/12/01 09:12:05;;;;;;;8.00;4.00;;;;;;;6.03;nan;100110.56;5025347;28;20120;-71
2021/12/01 09:14:55;;;;;;;8.20;4.50;;;;;;;6.03;nan;100106.13;5016699;28;20041;-70
2021/12/01 09:17:41;;;;;;;12.88;4.60;;;;;;;6.00;nan;100103.94;5009223;28;20038;-70
2021/12/01 09:20:27;;;;;;;11.05;4.70;;;;;;;6.00;nan;100109.16;5027510;28;20726;-71
2021/12/01 09:23:13;;;;;;;13.32;4.40;;;;;;;6.06;nan;100112.81;5022482;28;20072;-72
2021/12/01 09:25:58;;;;;;;13.80;5.25;;;;;;;6.05;nan;100111.19;5009652;28;20042;-70
2021/12/01 09:28:44;;;;;;;12.73;6.65;;;;;;;6.02;nan;100104.53;4998279;28;20046;-69
2021/12/01 09:31:30;;;;;;;13.45;6.10;;;;;;;6.09;nan;100112.38;5013895;28;20037;-69
2021/12/01 09:34:16;;;;;;;13.85;5.07;;;;;;;6.05;nan;100111.19;5026817;28;20414;-70
2021/12/01 09:37:02;;;;;;;11.43;4.97;;;;;;;6.08;nan;100105.53;5016273;28;20438;-69
2021/12/01 09:39:48;;;;;;;12.07;4.70;;;;;;;;;;5020831;28;20040;-70
2021/12/01 09:42:34;;;;;;;8.05;4.38;;;;;;;;;;5025675;28;20048;-70
2021/12/01 09:45:21;;;;;;;12.43;5.70;;;;;;;;;;5008037;28;20046;-70
2021/12/01 09:48:08;;;;;;;15.68;5.80;;;;;;;6.24;nan;100008.38;5008720;28;20482;-71
2021/12/01 09:50:53;;;;;;;10.23;5.25;;;;;;;6.32;nan;100106.72;5005083;28;20031;-71
2021/12/01 09:53:40;;;;;;;8.93;5.00;;;;;;;6.39;nan;100123.19;5026662;28;20103;-72
2021/12/01 09:56:25;;;;;;;8.98;4.50;;;;;;;6.38;nan;100119.78;5001236;28;20042;-71
2021/12/01 09:59:11;;;;;;;8.50;4.20;;;;;;;6.47;nan;100130.84;5003195;28;20040;-70
2021/12/01 10:01:57;;;;;;;10.38;4.60;;;;;;;6.44;nan;100115.56;5018903;28;20132;-72
2021/12/01 10:04:43;;;;;;;10.88;4.05;;;;;;;6.54;nan;100126.41;5011871;28;20029;-67
2021/12/01 10:07:33;;;;;;;9.63;3.90;;;;;;;6.67;nan;100132.59;5010728;28;20685;-69
2021/12/01 10:10:20;;;;;;;12.13;4.40;;;;;;;6.62;nan;100108.88;5006124;28;20423;-68
2021/12/01 10:13:06;;;;;;;9.13;4.13;;;;;;;6.73;nan;100105.63;5013364;28;20037;-66
2021/12/01 10:15:54;;;;;;;9.27;3.90;;;;;;;6.90;nan;100122.47;5018543;28;20038;-68
2021/12/01 10:18:46;;;;;;;7.80;4.15;;;;;;;7.00;nan;100119.41;5010805;28;20038;-69
2021/12/01 10:21:35;;;;;;;11.95;5.38;;;;;;;7.10;nan;100130.22;5018135;28;20045;-69
2021/12/01 10:24:24;;;;;;;12.98;5.72;;;;;;;7.18;nan;100135.25;5004813;28;20045;-68
2021/12/01 10:27:12;;;;;;;11.23;4.72;;;;;;;7.27;nan;100142.84;5011916;28;20415;-68
2021/12/01 10:29:58;;;;;;;10.88;4.07;;;;;;;7.31;nan;100133.56;5008299;28;20029;-67
2021/12/01 10:33:09;;;;;;;7.15;3.83;;;;;;;7.37;nan;100132.72;5011336;28;20038;-68
2021/12/01 10:35:57;;;;;;;6.88;4.28;;;;;;;7.42;nan;100128.47;5003601;28;20708;-69
2021/12/01 10:38:45;;;;;;;9.35;4.88;;;;;;;7.39;nan;100118.41;5024311;28;20041;-68
2021/12/01 10:41:36;;;;;;;9.65;4.50;;;;;;;7.53;nan;100126.19;5016954;28;20038;-68
2021/12/01 10:44:22;;;;;;;11.25;5.38;;;;;;;7.50;nan;100130.03;5010486;28;20042;-69
2021/12/01 10:47:10;;;;;;;8.30;4.95;;;;;;;7.63;nan;100132.56;5020179;28;20561;-67
2021/12/01 10:49:57;;;;;;;13.60;5.10;;;;;;;7.71;nan;100121.03;5010241;28;20112;-69
2021/12/01 10:52:49;;;;;;;9.73;4.90;;;;;;;7.73;nan;100110.31;5001443;28;20042;-69
2021/12/01 10:55:45;;;;;;;7.28;3.83;;;;;;;7.82;nan;100101.97;5002322;28;20050;-70
2021/12/01 10:58:32;;;;;;;6.63;3.70;;;;;;;7.89;nan;100096.69;4992167;28;20128;-68
2021/12/01 11:01:19;;;;;;;11.23;4.03;;;;;;;7.87;nan;100085.59;5011397;28;20049;-68
2021/12/01 11:04:06;;;;;;;6.32;3.72;;;;;;;7.96;nan;100088.78;5028265;28;20045;-68
2021/12/01 11:06:52;;;;;;;6.05;3.17;;;;;;;7.96;nan;100088.78;5004697;28;20066;-68
2021/12/01 11:09:37;;;;;;;7.40;3.58;;;;;;;8.07;nan;100082.84;4997380;28;20034;-68
2021/12/01 11:12:29;;;;;;;7.88;3.42;;;;;;;8.11;nan;100073.50;4996532;28;20046;-67
2021/12/01 11:15:21;;;;;;;12.00;2.65;;;;;;;8.16;nan;100063.16;4997021;28;20110;-67
2021/12/01 11:18:09;;;;;;;5.25;2.85;;;;;;;8.23;nan;100069.13;5001970;28;20041;-69
2021/12/01 11:20:58;;;;;;;9.60;6.50;;;;;;;8.27;nan;100065.06;4999111;28;20093;-68
2021/12/01 11:23:53;;;;;;;8.35;3.00;;;;;;;8.25;nan;100051.34;5014460;28;20042;-67
2021/12/01 11:26:44;;;;;;;5.82;3.00;;;;;;;8.32;nan;100048.66;5000696;28;20466;-69
2021/12/01 11:29:30;;;;;;;6.28;3.10;;;;;;;8.31;nan;100039.22;5000264;28;20506;-68
2021/12/01 11:32:16;;;;;;;10.00;3.53;;;;;;;8.44;nan;100049.56;5012792;28;20044;-68
2021/12/01 11:35:01;;;;;;;7.40;2.90;;;;;;;8.44;nan;100043.53;5005248;28;20499;-68
2021/12/01 11:37:55;;;;;;;4.78;2.70;;;;;;;8.54;nan;100037.75;4998237;28;20056;-68
2021/12/01 11:40:41;;;;;;;8.57;3.33;;;;;;;8.58;nan;100036.31;5001768;28;20072;-67
2021/12/01 11:43:30;;;;;;;10.90;2.88;;;;;;;8.55;nan;100016.56;4996813;28;20057;-67
2021/12/01 11:46:16;;;;;;;5.22;2.85;;;;;;;8.49;nan;99999.06;5001056;28;20034;-69
2021/12/01 11:49:11;;;;;;;6.85;3.13;;;;;;;8.72;nan;100020.16;5015441;28;20079;-68
2021/12/01 11:52:08;;;;;;;8.88;2.65;;;;;;;8.78;nan;100022.94;5003071;28;20045;-67
2021/12/01 11:54:54;;;;;;;6.80;2.83;;;;;;;8.80;nan;100005.94;4997897;28;20507;-68
2021/12/01 11:57:40;;;;;;;10.98;3.40;;;;;;;8.87;nan;99998.75;4996148;28;20053;-67
2021/12/01 12:00:45;;;;;;;3.92;2.45;;;;;;;8.91;nan;100001.75;5003620;28;20030;-67
2021/12/01 12:03:31;;;;;;;12.00;3.08;;;;;;;8.95;nan;99981.88;5010704;28;20128;-67
2021/12/01 12:06:25;;;;;;;7.32;2.80;;;;;;;9.02;nan;99979.16;5004416;28;20045;-67
2021/12/01 12:09:13;;;;;;;5.97;3.30;;;;;;;9.07;nan;99976.66;5001981;28;20124;-66
2021/12/01 12:11:59;;;;;;;5.07;2.63;;;;;;;9.12;nan;99977.59;5007910;28;20123;-67
2021/12/01 12:14:44;;;;;;;4.68;2.67;;;;;;;9.21;nan;99967.56;5007303;28;20149;-68
2021/12/01 12:17:34;;;;;;;4.90;2.40;;;;;;;9.28;nan;99967.47;5009374;28;20124;-66
2021/12/01 12:20:25;;;;;;;4.47;2.33;;;;;;;9.28;nan;99944.59;5008218;28;20045;-68
2021/12/01 12:23:12;;;;;;;9.85;2.58;;;;;;;9.35;nan;99944.50;5008243;28;20555;-68
2021/12/01 12:25:57;;;;;;;7.15;2.72;;;;;;;9.48;nan;99938.22;4999107;28;20069;-65
2021/12/01 12:28:43;;;;;;;4.97;2.70;;;;;;;9.64;nan;99952.50;5009805;28;20042;-68
2021/12/01 12:31:31;;;;;;;5.95;3.03;;;;;;;9.75;nan;99944.63;5009654;28;20101;-68
2021/12/01 12:34:22;;;;;;;6.43;2.83;;;;;;;9.74;nan;99927.22;5008774;28;20042;-67
2021/12/01 12:37:21;;;;;;;8.52;2.95;;;;;;;9.91;nan;99940.47;5009115;28;20104;-67
2021/12/01 12:40:22;;;;;;;7.75;2.55;;;;;;;10.07;nan;99949.47;5020021;28;20033;-68
2021/12/01 12:43:08;;;;;;;6.78;3.15;;;;;;;10.16;nan;99952.53;5007037;28;20037;-66
2021/12/01 12:46:03;;;;;;;5.82;3.35;;;;;;;10.15;nan;99927.25;5006571;28;20083;-68
2021/12/01 12:48:52;;;;;;;3.85;2.33;;;;;;;10.36;nan;99945.06;5008497;28;20108;-68
2021/12/01 12:51:39;;;;;;;4.93;2.17;;;;;;;10.43;nan;99956.25;5008208;28;20160;-68
2021/12/01 12:54:24;;;;;;;3.58;2.10;;;;;;;10.46;nan;99948.94;5017122;28;20045;-69
2021/12/01 12:57:10;;;;;;;4.07;2.28;;;;;;;10.43;nan;99951.00;5007256;28;20041;-69
2021/12/01 13:00:22;;;;;;;5.88;2.88;;;;;;;10.20;nan;99909.75;5003229;28;20069;-70
2021/12/01 13:03:17;;;;;;;8.13;2.67;;;;;;;10.53;nan;99939.84;4999126;28;20044;-69
2021/12/01 13:06:07;;;;;;;6.07;2.67;;;;;;;10.55;nan;99929.09;5008006;28;20045;-70
2021/12/01 13:08:53;;;;;;;5.47;2.70;;;;;;;10.48;nan;99904.75;5008467;28;20034;-72
2021/12/01 13:11:39;;;;;;;5.60;2.80;;;;;;;10.49;nan;99896.63;5004793;28;20455;-70
2021/12/01 13:14:25;;;;;;;3.08;1.88;;;;;;;10.53;nan;99905.63;5006532;28;20044;-70
2021/12/01 13:17:11;;;;;;;6.03;2.10;;;;;;;10.64;nan;99909.25;5007835;28;20056;-70
2021/12/01 13:20:00;;;;;;;6.35;2.45;;;;;;;10.69;nan;99930.41;5018106;28;20072;-70
2021/12/01 13:23:21;;;;;;;5.75;1.88;;;;;;;10.74;nan;99927.84;4993333;28;20038;-70
2021/12/01 13:26:07;;;;;;;2.88;2.03;;;;;;;10.77;nan;99930.00;4999551;28;20037;-70
2021/12/01 13:29:05;;;;;;;4.82;2.50;;;;;;;10.50;nan;99889.53;4995663;28;20041;-71
2021/12/01 13:31:51;;;;;;;10.68;2.30;;;;;;;10.70;nan;99929.34;4999327;28;20034;-70
2021/12/01 13:34:36;;;;;;;5.32;2.90;;;;;;;10.62;nan;99925.28;5009554;28;20415;-70
2021/12/01 13:37:22;;;;;;;6.03;2.70;;;;;;;10.61;nan;99931.59;5009736;28;20117;-71
2021/12/01 13:40:11;;;;;;;7.40;3.30;;;;;;;10.57;nan;99927.03;5012236;28;20038;-70